Time;durP1;ratioP1;P1;durP2;ratioP2;P2;SDS_P1;SDS_P2;PMS_P1;PMS_P2;Temp;Humidity;BMP_temperature;BMP_pressure;BME280_temperature;BME280_humidity;BME280_pressure;Samples;Min_cycle;Max_cycle;Signal;HPM_P1;HPM_P2
2021/05/31 00:01:35;;;;;;;11.10;8.28;;;;;;;16.27;100.00;100682.05;1700185;82;21643;-65
2021/05/31 00:04:02;;;;;;;12.88;8.55;;;;;;;16.25;100.00;100683.98;1702441;84;21510;-63
2021/05/31 00:06:29;;;;;;;12.58;8.30;;;;;;;16.24;100.00;100681.34;1698225;83;21125;-64
2021/05/31 00:08:56;;;;;;;10.55;8.18;;;;;;;16.18;100.00;100675.35;1670760;84;21665;-71
2021/05/31 00:11:22;;;;;;;13.98;8.48;;;;;;;16.15;100.00;100678.71;1674699;84;21578;-63
2021/05/31 00:13:51;;;;;;;14.75;7.97;;;;;;;16.10;100.00;100676.77;1677128;85;21109;-63
2021/05/31 00:16:17;;;;;;;9.40;7.53;;;;;;;16.07;100.00;100674.25;1676935;85;21141;-63
2021/05/31 00:18:46;;;;;;;10.63;7.85;;;;;;;16.03;100.00;100666.79;1677216;85;21583;-64
2021/05/31 00:21:12;;;;;;;12.05;7.95;;;;;;;16.01;100.00;100673.63;1620997;85;22344;-64
2021/05/31 00:23:40;;;;;;;10.72;7.58;;;;;;;15.99;100.00;100666.59;1666083;84;21620;-70
2021/05/31 00:26:08;;;;;;;12.95;7.92;;;;;;;15.99;100.00;100674.70;1671676;83;21030;-73
2021/05/31 00:28:36;;;;;;;12.43;7.85;;;;;;;15.98;100.00;100672.46;1672301;85;21113;-71
2021/05/31 00:31:02;;;;;;;9.50;7.35;;;;;;;15.96;100.00;100670.33;1697406;83;21151;-71
2021/05/31 00:33:31;;;;;;;10.23;7.28;;;;;;;15.94;100.00;100674.96;1696963;84;21183;-64
2021/05/31 00:35:59;;;;;;;9.15;7.08;;;;;;;15.92;100.00;100666.07;1670620;84;20986;-72
2021/05/31 00:38:25;;;;;;;13.18;7.37;;;;;;;15.91;100.00;100675.15;1670370;84;21085;-72
2021/05/31 00:40:52;;;;;;;9.43;7.72;;;;;;;15.89;100.00;100667.61;1670739;84;21524;-71
2021/05/31 00:43:19;;;;;;;16.10;7.70;;;;;;;15.89;100.00;100678.42;1670749;84;21061;-70
2021/05/31 00:45:47;;;;;;;14.05;7.47;;;;;;;15.87;100.00;100673.06;1670756;84;21837;-63
2021/05/31 00:48:15;;;;;;;11.53;7.65;;;;;;;15.85;100.00;100674.13;1670502;84;21090;-63
2021/05/31 00:50:43;;;;;;;10.13;7.75;;;;;;;15.84;100.00;100675.95;1655221;84;21145;-63
2021/05/31 00:53:11;;;;;;;9.03;7.58;;;;;;;15.81;100.00;100673.92;1642383;85;21037;-64
2021/05/31 00:55:38;;;;;;;13.15;7.78;;;;;;;15.80;100.00;100676.20;1641872;85;21109;-63
2021/05/31 00:58:05;;;;;;;8.75;7.53;;;;;;;15.77;100.00;100667.81;1641571;87;21205;-63
2021/05/31 01:00:32;;;;;;;10.53;7.87;;;;;;;15.73;100.00;100667.11;1641909;85;21137;-65
2021/05/31 01:02:58;;;;;;;25.08;8.63;;;;;;;15.68;100.00;100665.16;1642059;85;21109;-64
2021/05/31 01:05:25;;;;;;;15.95;8.58;;;;;;;15.64;100.00;100670.83;1641823;85;21596;-64
2021/05/31 01:07:57;;;;;;;10.28;7.55;;;;;;;15.58;100.00;100665.28;1668977;84;21574;-65
2021/05/31 01:10:43;;;;;;;10.57;8.00;;;;;;;15.53;100.00;100666.92;1653137;84;21099;-64
2021/05/31 01:13:40;;;;;;;11.68;7.62;;;;;;;15.50;100.00;100666.22;1617004;87;21796;-63
2021/05/31 01:16:13;;;;;;;16.15;7.75;;;;;;;15.45;100.00;100663.30;1611651;87;21170;-65
2021/05/31 01:18:43;;;;;;;9.83;7.00;;;;;;;15.41;100.00;100666.27;1600115;87;21100;-65
2021/05/31 01:21:34;;;;;;;10.32;7.50;;;;;;;15.37;100.00;100664.23;1618206;87;21024;-63
2021/05/31 01:24:32;;;;;;;10.25;7.03;;;;;;;15.32;100.00;100664.95;1617079;88;21557;-62
2021/05/31 01:27:25;;;;;;;12.15;6.90;;;;;;;15.27;100.00;100667.05;1616946;87;21556;-65
2021/05/31 01:30:07;;;;;;;8.00;6.53;;;;;;;15.22;100.00;100663.73;1616852;87;21552;-64
2021/05/31 01:32:39;;;;;;;10.72;6.62;;;;;;;15.15;100.00;100660.03;1617328;87;22245;-61
2021/05/31 01:35:28;;;;;;;8.80;5.65;;;;;;;15.12;100.00;100657.98;1616967;87;21159;-62
2021/05/31 01:37:56;;;;;;;9.33;6.47;;;;;;;15.06;99.75;100661.88;1648955;85;21762;-64
2021/05/31 01:40:23;;;;;;;7.78;6.10;;;;;;;15.01;99.29;100659.92;1659406;86;21570;-62
2021/05/31 01:42:52;;;;;;;11.65;6.62;;;;;;;14.98;99.06;100661.45;1715049;82;21084;-63
2021/05/31 01:45:21;;;;;;;11.73;7.83;;;;;;;14.96;99.02;100656.61;1714977;82;21740;-63
2021/05/31 01:47:47;;;;;;;11.90;8.10;;;;;;;14.95;98.83;100650.82;1683089;84;21064;-69
2021/05/31 01:50:15;;;;;;;12.40;7.05;;;;;;;14.94;98.58;100658.03;1684878;85;21237;-70
2021/05/31 01:52:44;;;;;;;12.90;8.25;;;;;;;14.93;98.15;100654.09;1686722;85;21491;-64
2021/05/31 01:55:13;;;;;;;13.60;7.62;;;;;;;14.90;97.95;100661.86;1685487;85;21137;-62
2021/05/31 01:57:43;;;;;;;13.38;9.58;;;;;;;14.86;97.70;100658.45;1693535;84;21045;-70
2021/05/31 02:00:11;;;;;;;11.33;8.28;;;;;;;14.83;97.64;100654.57;1692424;84;21084;-69
2021/05/31 02:02:38;;;;;;;19.57;13.03;;;;;;;14.81;97.55;100654.25;1685213;83;21144;-63
2021/05/31 02:05:09;;;;;;;16.75;9.43;;;;;;;14.79;97.45;100653.46;1684318;84;21086;-63
2021/05/31 02:07:38;;;;;;;16.30;11.15;;;;;;;14.74;97.54;100653.23;1683705;83;22250;-62
2021/05/31 02:10:08;;;;;;;24.12;15.63;;;;;;;14.72;97.61;100651.59;1685538;85;21145;-62
2021/05/31 02:12:56;;;;;;;24.12;15.85;;;;;;;14.73;97.48;100654.69;1696110;83;21711;-63
2021/05/31 02:15:58;;;;;;;24.95;17.15;;;;;;;14.71;97.32;100643.11;1698739;82;22292;-62
2021/05/31 02:18:30;;;;;;;23.25;16.20;;;;;;;14.71;97.19;100651.20;1686397;84;21118;-69
2021/05/31 02:21:10;;;;;;;25.32;17.98;;;;;;;14.71;97.17;100651.20;1688826;82;21011;-72
2021/05/31 02:23:37;;;;;;;23.83;18.65;;;;;;;14.74;97.07;100649.69;1681975;83;21128;-72
2021/05/31 02:26:04;;;;;;;25.00;17.27;;;;;;;14.75;96.85;100650.08;1729391;82;21122;-72
2021/05/31 02:28:31;;;;;;;22.50;14.33;;;;;;;14.77;96.68;100656.27;1686418;83;21733;-71
2021/05/31 02:31:01;;;;;;;18.48;11.70;;;;;;;14.79;96.42;100648.06;1686510;83;21606;-71
2021/05/31 02:33:28;;;;;;;19.48;12.20;;;;;;;14.80;96.23;100653.39;1728326;82;21953;-70
2021/05/31 02:35:54;;;;;;;17.75;12.70;;;;;;;14.82;96.26;100659.58;1686555;83;21123;-62
2021/05/31 02:38:21;;;;;;;17.62;11.25;;;;;;;14.85;96.01;100643.21;1688550;84;20976;-62
2021/05/31 02:40:47;;;;;;;12.10;8.88;;;;;;;14.88;95.98;100648.44;1687403;83;21793;-71
2021/05/31 02:43:14;;;;;;;12.03;8.43;;;;;;;14.92;95.60;100642.86;1686415;83;21130;-70
2021/05/31 02:45:42;;;;;;;9.85;7.10;;;;;;;14.93;95.46;100642.80;1686579;83;21157;-70
2021/05/31 02:48:09;;;;;;;14.98;6.90;;;;;;;14.96;95.31;100636.36;1686498;83;21102;-74
2021/05/31 02:50:36;;;;;;;12.33;6.42;;;;;;;14.99;95.18;100633.48;1686333;84;21121;-72
2021/05/31 02:53:03;;;;;;;12.37;5.95;;;;;;;15.01;95.06;100636.97;1686121;84;21639;-65
2021/05/31 02:55:32;;;;;;;8.08;5.60;;;;;;;15.01;94.70;100639.67;1685974;83;21114;-63
2021/05/31 02:58:00;;;;;;;10.80;6.22;;;;;;;15.02;94.56;100642.77;1688134;83;22255;-63
2021/05/31 03:00:28;;;;;;;8.43;6.30;;;;;;;15.02;94.16;100641.41;1678898;83;21122;-64
2021/05/31 03:02:55;;;;;;;13.53;10.30;;;;;;;15.01;93.86;100645.07;1658114;86;21584;-63
2021/05/31 03:05:28;;;;;;;14.07;9.33;;;;;;;15.03;93.69;100645.86;1661125;85;21771;-65
2021/05/31 03:07:57;;;;;;;18.15;12.70;;;;;;;15.04;93.41;100647.60;1680842;84;21611;-63
2021/05/31 03:10:24;;;;;;;9.83;7.33;;;;;;;15.06;93.16;100640.28;1687796;83;21070;-64
2021/05/31 03:12:50;;;;;;;14.23;9.65;;;;;;;15.07;93.02;100643.38;1661424;84;20991;-64
2021/05/31 03:15:17;;;;;;;16.37;12.68;;;;;;;15.10;92.71;100652.65;1659655;84;21118;-72
2021/05/31 03:17:45;;;;;;;12.93;9.10;;;;;;;15.09;92.27;100648.20;1688436;84;21640;-72
2021/05/31 03:20:13;;;;;;;13.90;7.72;;;;;;;15.10;92.25;100648.59;1687954;84;21062;-63
2021/05/31 03:22:40;;;;;;;15.95;9.38;;;;;;;15.10;92.40;100640.99;1687056;83;21046;-63
2021/05/31 03:25:07;;;;;;;9.60;6.30;;;;;;;15.09;92.45;100650.05;1686755;83;21807;-65
2021/05/31 03:27:35;;;;;;;16.12;8.40;;;;;;;15.08;92.45;100646.47;1686747;84;21146;-75
2021/05/31 03:30:05;;;;;;;14.85;10.25;;;;;;;15.09;92.16;100647.35;1686665;83;21626;-74
2021/05/31 03:32:31;;;;;;;8.00;5.58;;;;;;;15.10;92.24;100647.75;1686681;84;21119;-72
2021/05/31 03:34:58;;;;;;;7.42;5.58;;;;;;;15.10;92.25;100647.25;1686572;84;21286;-63
2021/05/31 03:37:25;;;;;;;10.35;5.60;;;;;;;15.13;92.35;100645.72;1701757;82;21088;-63
2021/05/31 03:39:51;;;;;;;6.30;4.97;;;;;;;15.16;92.14;100646.92;1715315;82;21116;-72
2021/05/31 03:42:18;;;;;;;15.13;5.22;;;;;;;15.17;91.53;100647.31;1715041;82;21931;-72
2021/05/31 03:44:44;;;;;;;9.23;5.10;;;;;;;15.16;91.60;100645.58;1715293;82;21128;-62
2021/05/31 03:47:11;;;;;;;15.83;5.17;;;;;;;15.16;91.51;100650.09;1715206;82;21100;-62
2021/05/31 03:49:37;;;;;;;11.28;4.90;;;;;;;15.15;91.60;100651.94;1715200;82;21100;-62
2021/05/31 03:52:05;;;;;;;8.85;4.65;;;;;;;15.15;92.02;100653.29;1715109;82;21116;-72
2021/05/31 03:54:32;;;;;;;10.50;4.53;;;;;;;15.17;92.07;100651.83;1716275;82;21782;-63
2021/05/31 03:56:59;;;;;;;11.22;4.97;;;;;;;15.18;91.87;100654.46;1715050;82;21467;-62
2021/05/31 03:59:26;;;;;;;13.22;4.97;;;;;;;15.17;92.06;100650.02;1715094;83;21116;-62
2021/05/31 04:01:53;;;;;;;8.00;4.95;;;;;;;15.17;92.16;100659.47;1690224;83;21563;-62
2021/05/31 04:04:21;;;;;;;5.97;4.70;;;;;;;15.20;92.05;100665.66;1685095;83;21772;-64
2021/05/31 04:12:01;;;;;;;8.33;4.62;;;;;;;15.27;92.07;100659.83;1682748;83;21101;-71
2021/05/31 04:14:28;;;;;;;7.17;4.60;;;;;;;15.27;91.67;100653.54;1715000;82;21168;-71
2021/05/31 04:16:56;;;;;;;9.43;5.00;;;;;;;15.28;91.51;100649.88;1717217;83;20902;-71
2021/05/31 04:19:24;;;;;;;8.85;5.15;;;;;;;15.32;91.28;100649.63;1715386;82;21545;-71
2021/05/31 04:21:52;;;;;;;7.05;4.58;;;;;;;15.35;90.72;100647.70;1715041;82;21089;-68
2021/05/31 04:24:19;;;;;;;7.25;4.85;;;;;;;15.36;90.38;100651.66;1715684;83;21040;-71
2021/05/31 04:26:46;;;;;;;10.88;4.87;;;;;;;15.38;90.22;100646.18;1715387;82;21152;-70
2021/05/31 04:29:14;;;;;;;7.17;4.47;;;;;;;15.39;89.57;100641.16;1714965;82;21113;-70
2021/05/31 04:31:42;;;;;;;6.08;4.55;;;;;;;15.38;89.38;100639.42;1697645;83;21152;-70
2021/05/31 04:34:10;;;;;;;6.45;4.55;;;;;;;15.39;89.29;100647.45;1685232;85;21117;-70
2021/05/31 04:36:37;;;;;;;7.45;5.10;;;;;;;15.39;89.19;100645.22;1684916;83;21105;-70
2021/05/31 04:39:06;;;;;;;7.65;5.00;;;;;;;15.35;89.26;100643.16;1689027;83;21120;-69
2021/05/31 04:41:33;;;;;;;7.50;4.65;;;;;;;15.33;89.70;100645.08;1716170;82;21037;-70
2021/05/31 04:44:00;;;;;;;8.30;4.75;;;;;;;15.35;89.70;100645.86;1716031;83;21510;-71
2021/05/31 04:46:27;;;;;;;7.72;4.10;;;;;;;15.35;89.73;100637.76;1714931;83;21511;-68
2021/05/31 04:48:56;;;;;;;9.93;4.72;;;;;;;15.36;89.73;100645.40;1715194;82;21130;-70
2021/05/31 04:51:24;;;;;;;7.50;5.42;;;;;;;15.38;89.79;100651.13;1715587;82;21073;-70
2021/05/31 04:53:53;;;;;;;8.98;5.67;;;;;;;15.42;89.77;100645.92;1715207;82;21065;-69
2021/05/31 04:56:20;;;;;;;17.30;5.47;;;;;;;15.39;89.30;100649.27;1715252;82;21139;-70
2021/05/31 04:58:46;;;;;;;14.83;5.87;;;;;;;15.38;89.66;100645.72;1715284;82;21620;-69
2021/05/31 05:01:13;;;;;;;10.72;6.75;;;;;;;15.44;89.81;100644.47;1710895;82;21550;-63
2021/05/31 05:03:40;;;;;;;9.38;6.10;;;;;;;15.52;89.63;100644.03;1715446;83;21658;-63
2021/05/31 05:06:06;;;;;;;15.93;9.53;;;;;;;15.59;89.48;100638.69;1708082;82;21134;-63
2021/05/31 05:08:34;;;;;;;14.28;8.68;;;;;;;15.68;89.16;100644.89;1698476;82;21495;-64
2021/05/31 05:11:00;;;;;;;14.43;9.58;;;;;;;15.80;88.85;100641.95;1687026;83;21682;-63
2021/05/31 05:13:27;;;;;;;13.98;11.10;;;;;;;15.91;88.22;100642.70;1698453;84;21113;-63
2021/05/31 05:15:54;;;;;;;19.80;8.58;;;;;;;15.99;87.65;100647.16;1698638;82;21607;-64
2021/05/31 05:18:21;;;;;;;12.55;9.25;;;;;;;16.08;87.20;100648.45;1698701;84;21951;-63
2021/05/31 05:20:48;;;;;;;22.70;11.15;;;;;;;16.17;87.09;100648.38;1698358;82;23126;-63
2021/05/31 05:23:14;;;;;;;19.12;12.05;;;;;;;16.28;86.80;100654.03;1697832;82;21109;-63
2021/05/31 05:25:41;;;;;;;22.07;14.80;;;;;;;16.38;86.60;100643.52;1698187;82;21125;-63
2021/05/31 05:28:08;;;;;;;16.73;11.90;;;;;;;16.50;86.18;100650.02;1697836;84;21161;-63
2021/05/31 05:30:34;;;;;;;11.38;8.25;;;;;;;16.63;85.81;100647.88;1734058;81;21673;-63
2021/05/31 05:33:01;;;;;;;14.40;6.75;;;;;;;16.72;85.36;100649.53;1714537;83;21168;-62
2021/05/31 05:35:43;;;;;;;19.15;9.00;;;;;;;16.81;84.93;100650.80;1714268;83;21675;-63
2021/05/31 05:46:12;;;;;;;10.98;5.87;;;;;;;17.17;83.74;100653.52;1700027;82;21877;-63
2021/05/31 05:48:30;;;;;;;12.73;6.83;;;;;;;17.25;83.48;100648.97;1682156;83;21133;-64
2021/05/31 05:51:08;;;;;;;9.93;7.22;;;;;;;17.29;82.97;100641.48;1692534;84;21102;-63
2021/05/31 05:53:40;;;;;;;12.93;8.18;;;;;;;17.32;82.70;100643.52;1686504;82;21164;-64
2021/05/31 05:56:10;;;;;;;21.42;12.15;;;;;;;17.35;82.64;100645.14;1693079;83;21053;-63
2021/05/31 05:58:37;;;;;;;15.85;11.60;;;;;;;17.43;82.46;100636.05;1687393;83;21116;-62
2021/05/31 06:01:04;;;;;;;32.95;24.82;;;;;;;17.52;82.27;100643.17;1685266;83;21122;-63
2021/05/31 06:03:31;;;;;;;25.27;15.85;;;;;;;17.59;81.66;100641.31;1693139;83;21166;-64
2021/05/31 06:06:00;;;;;;;14.43;10.82;;;;;;;17.65;81.46;100634.62;1697120;83;21200;-62
2021/05/31 06:08:27;;;;;;;17.87;12.93;;;;;;;17.75;81.38;100630.80;1689294;83;21162;-62
2021/05/31 06:10:55;;;;;;;30.05;23.18;;;;;;;17.86;80.76;100633.64;1689466;83;21646;-62
2021/05/31 06:13:24;;;;;;;26.48;20.43;;;;;;;17.98;80.39;100634.66;1689645;83;21542;-62
2021/05/31 06:15:54;;;;;;;29.27;21.60;;;;;;;18.12;80.00;100639.66;1696926;83;21546;-63
2021/05/31 06:18:22;;;;;;;37.78;25.32;;;;;;;18.23;79.46;100634.34;1686830;83;21073;-67
2021/05/31 06:20:50;;;;;;;32.63;18.95;;;;;;;18.36;79.23;100632.16;1691109;84;21199;-67
2021/05/31 06:23:16;;;;;;;22.65;15.05;;;;;;;18.50;78.37;100627.11;1684623;83;21626;-66
2021/05/31 06:25:43;;;;;;;18.27;12.63;;;;;;;18.61;77.25;100630.80;1692372;82;21233;-64
2021/05/31 06:28:10;;;;;;;26.85;17.37;;;;;;;18.70;76.57;100621.64;1688097;83;21474;-64
2021/05/31 06:30:36;;;;;;;28.02;19.55;;;;;;;18.81;76.29;100633.09;1687760;82;21565;-62
2021/05/31 06:33:04;;;;;;;32.05;24.45;;;;;;;18.90;75.87;100625.15;1695429;82;21745;-63
2021/05/31 06:35:31;;;;;;;23.00;18.02;;;;;;;19.02;75.67;100623.89;1683951;83;21599;-64
2021/05/31 06:37:59;;;;;;;19.35;13.03;;;;;;;19.07;75.19;100628.50;1693414;82;21120;-64
2021/05/31 06:40:27;;;;;;;15.48;9.93;;;;;;;19.07;74.97;100627.14;1690179;83;21128;-64
2021/05/31 06:42:56;;;;;;;14.75;9.83;;;;;;;19.08;75.15;100626.16;1684951;82;22418;-67
2021/05/31 06:45:27;;;;;;;16.12;9.23;;;;;;;19.14;75.26;100624.38;1668628;84;21605;-64
2021/05/31 06:48:00;;;;;;;13.35;8.80;;;;;;;19.25;74.84;100626.77;1670257;84;21079;-67
2021/05/31 06:50:29;;;;;;;16.93;9.38;;;;;;;19.34;74.17;100624.72;1670817;84;20922;-63
2021/05/31 06:52:58;;;;;;;11.45;7.83;;;;;;;19.42;73.92;100627.75;1666974;84;21028;-64
2021/05/31 06:55:25;;;;;;;9.23;6.70;;;;;;;19.47;74.38;100620.12;1668065;84;20986;-63
2021/05/31 06:57:53;;;;;;;11.30;6.17;;;;;;;19.59;74.41;100626.99;1666257;85;21721;-64
2021/05/31 07:00:25;;;;;;;8.05;5.83;;;;;;;19.68;74.13;100629.00;1673834;83;21577;-64
2021/05/31 07:02:52;;;;;;;8.65;5.80;;;;;;;19.76;74.19;100627.91;1669536;84;20961;-70
2021/05/31 07:05:19;;;;;;;19.35;6.90;;;;;;;19.79;73.76;100634.14;1676336;84;21502;-70
2021/05/31 07:07:46;;;;;;;10.05;5.80;;;;;;;19.78;73.36;100628.29;1670230;84;21140;-70
2021/05/31 07:10:14;;;;;;;10.23;6.47;;;;;;;19.71;73.54;100634.72;1668838;84;21071;-70
2021/05/31 07:12:42;;;;;;;7.70;5.50;;;;;;;19.65;73.73;100630.59;1670237;84;21886;-71
2021/05/31 07:15:14;;;;;;;10.43;4.92;;;;;;;19.64;73.20;100634.30;1668532;84;21156;-70
2021/05/31 07:17:39;;;;;;;11.00;5.42;;;;;;;19.56;73.53;100631.27;1675088;83;21534;-71
2021/05/31 07:20:11;;;;;;;13.13;5.87;;;;;;;19.54;74.01;100631.88;1675229;83;21603;-71
2021/05/31 07:22:38;;;;;;;15.23;7.05;;;;;;;19.55;74.18;100632.26;1673032;82;20945;-69
2021/05/31 07:25:07;;;;;;;14.25;6.80;;;;;;;19.57;74.14;100638.48;1660884;84;21132;-69
2021/05/31 07:27:34;;;;;;;10.72;6.45;;;;;;;19.57;73.99;100633.04;1677893;83;21136;-63
2021/05/31 07:30:08;;;;;;;15.15;6.95;;;;;;;19.53;73.70;100631.51;1677836;84;21119;-69
2021/05/31 07:32:36;;;;;;;10.80;7.55;;;;;;;19.46;73.44;100631.13;1671389;84;22089;-69
2021/05/31 07:35:06;;;;;;;15.18;7.35;;;;;;;19.40;73.69;100631.08;1669953;84;21152;-63
2021/05/31 07:37:34;;;;;;;14.78;8.78;;;;;;;19.40;74.06;100628.84;1672828;83;21063;-70
2021/05/31 07:40:01;;;;;;;11.45;7.67;;;;;;;19.40;74.26;100629.72;1688773;83;20968;-69
2021/05/31 07:42:29;;;;;;;12.65;6.97;;;;;;;19.40;74.12;100624.28;1694643;84;21053;-71
2021/05/31 07:44:56;;;;;;;15.32;7.55;;;;;;;19.42;73.95;100620.08;1689270;83;20946;-64
2021/05/31 07:47:22;;;;;;;16.48;7.62;;;;;;;19.41;74.09;100623.30;1687949;84;21694;-64
2021/05/31 07:49:50;;;;;;;12.33;8.00;;;;;;;19.40;74.40;100623.41;1694231;83;21718;-64
2021/05/31 07:52:20;;;;;;;16.80;10.23;;;;;;;19.41;74.35;100616.98;1674979;83;22177;-65
2021/05/31 07:54:48;;;;;;;15.23;8.08;;;;;;;19.42;74.21;100613.28;1687679;83;21156;-70
2021/05/31 07:57:15;;;;;;;10.70;6.87;;;;;;;19.47;74.46;100621.48;1689215;83;20994;-70
2021/05/31 07:59:43;;;;;;;19.82;9.23;;;;;;;19.47;73.68;100618.75;1700307;83;21199;-64
2021/05/31 08:02:10;;;;;;;16.48;7.72;;;;;;;19.46;74.06;100612.95;1645237;85;21838;-65
2021/05/31 08:04:37;;;;;;;15.08;6.80;;;;;;;19.51;73.91;100614.45;1643510;85;21193;-65
2021/05/31 08:07:05;;;;;;;14.38;8.68;;;;;;;19.61;73.27;100612.78;1635742;86;21837;-63
2021/05/31 08:09:33;;;;;;;13.70;7.05;;;;;;;19.78;72.81;100614.69;1688717;83;21005;-63
2021/05/31 08:12:00;;;;;;;21.55;7.90;;;;;;;19.94;72.04;100619.38;1684285;84;20990;-63
2021/05/31 08:14:31;;;;;;;27.65;11.12;;;;;;;20.12;71.90;100610.78;1688019;83;21661;-69
2021/05/31 08:16:58;;;;;;;22.00;7.90;;;;;;;20.33;71.11;100610.45;1690143;82;21029;-65
2021/05/31 08:19:26;;;;;;;22.85;8.48;;;;;;;20.53;70.41;100603.93;1685894;84;21495;-63
2021/05/31 08:21:54;;;;;;;10.93;7.35;;;;;;;20.74;69.74;100612.73;1683769;83;21629;-65
2021/05/31 08:24:21;;;;;;;29.35;16.35;;;;;;;20.91;68.39;100606.46;1687744;84;21018;-63
2021/05/31 08:26:48;;;;;;;17.45;11.05;;;;;;;21.04;67.07;100609.90;1680603;83;21156;-72
2021/05/31 08:29:15;;;;;;;24.65;9.95;;;;;;;21.14;66.69;100613.62;1688167;83;21432;-70
2021/05/31 08:31:42;;;;;;;14.53;8.85;;;;;;;21.26;66.43;100609.50;1689222;83;21092;-70
2021/05/31 08:34:09;;;;;;;23.15;9.08;;;;;;;21.36;66.03;100611.84;1672437;83;21529;-64
2021/05/31 08:36:36;;;;;;;20.08;8.98;;;;;;;21.46;65.23;100614.67;1690384;83;21642;-70
2021/05/31 08:39:04;;;;;;;23.02;8.75;;;;;;;21.54;64.85;100610.80;1674566;83;21133;-72
2021/05/31 08:41:32;;;;;;;19.00;7.83;;;;;;;21.61;64.49;100608.42;1649403;86;37326;-72
2021/05/31 08:43:58;;;;;;;15.20;8.68;;;;;;;21.74;64.77;100614.59;1649396;85;20989;-71
2021/05/31 08:46:25;;;;;;;20.37;8.53;;;;;;;21.85;64.21;100611.46;1650156;85;21070;-69
2021/05/31 08:51:32;;;;;;;21.95;8.48;;;;;;;22.07;62.79;100602.80;1821988;77;22361;-71
2021/05/31 08:54:00;;;;;;;18.77;8.23;;;;;;;22.14;62.53;100602.63;1797357;78;20987;-71
2021/05/31 08:56:28;;;;;;;13.55;7.37;;;;;;;22.27;61.46;100609.25;1798826;77;21094;-70
2021/05/31 08:58:55;;;;;;;13.32;7.67;;;;;;;22.38;61.43;100602.84;1796147;77;21074;-71
2021/05/31 09:01:24;;;;;;;17.37;7.35;;;;;;;22.47;61.46;100600.72;1796686;77;21502;-72
2021/05/31 09:03:53;;;;;;;16.60;7.60;;;;;;;22.54;60.70;100600.53;1797215;77;21352;-71
2021/05/31 09:06:22;;;;;;;9.48;6.90;;;;;;;22.60;60.22;100601.34;1798357;78;21045;-73
2021/05/31 09:09:00;;;;;;;12.78;6.72;;;;;;;22.70;59.56;100600.55;1737712;81;22267;-66
2021/05/31 09:11:28;;;;;;;19.65;6.78;;;;;;;22.79;59.28;100605.17;1737686;80;21105;-67
2021/05/31 09:13:56;;;;;;;12.03;6.47;;;;;;;22.87;58.80;100598.51;1730030;81;21583;-65
2021/05/31 09:16:29;;;;;;;16.15;6.28;;;;;;;22.94;58.14;100602.08;1765563;78;20890;-70
2021/05/31 09:19:05;;;;;;;9.03;5.45;;;;;;;22.97;57.22;100598.55;1762659;78;21375;-70
2021/05/31 09:21:38;;;;;;;14.05;5.58;;;;;;;23.00;57.00;100601.03;1762760;80;21731;-67
2021/05/31 09:24:13;;;;;;;7.60;4.75;;;;;;;23.05;56.31;100597.86;1763570;79;20973;-67
2021/05/31 09:26:47;;;;;;;10.10;5.03;;;;;;;23.07;55.63;100598.58;1766523;79;20958;-69
2021/05/31 09:29:14;;;;;;;9.03;4.35;;;;;;;23.04;55.17;100593.40;1764884;80;20953;-69
2021/05/31 09:31:41;;;;;;;10.60;5.33;;;;;;;22.95;54.87;100596.45;1739141;81;21558;-70
2021/05/31 09:34:19;;;;;;;14.35;3.83;;;;;;;22.90;54.09;100590.55;1741200;80;21724;-65
2021/05/31 09:37:01;;;;;;;10.05;4.30;;;;;;;22.84;54.14;100583.76;1733901;81;21827;-70
2021/05/31 09:39:50;;;;;;;15.20;3.80;;;;;;;22.80;54.13;100591.88;1700370;79;21457;-66
2021/05/31 09:42:36;;;;;;;16.15;3.90;;;;;;;22.83;54.39;100594.33;1744463;79;21543;-64
2021/05/31 09:45:22;;;;;;;4.17;3.25;;;;;;;22.84;54.36;100591.95;1756456;80;20922;-65
2021/05/31 09:48:05;;;;;;;11.53;3.60;;;;;;;22.96;53.99;100591.88;1734317;80;20929;-66
2021/05/31 09:50:35;;;;;;;6.58;3.92;;;;;;;23.04;53.58;100594.77;1748711;78;20986;-66
2021/05/31 09:53:06;;;;;;;7.15;3.45;;;;;;;23.11;52.32;100592.34;1736357;81;20986;-66
2021/05/31 09:55:41;;;;;;;6.00;3.33;;;;;;;23.21;52.68;100595.10;1739278;81;21057;-67
2021/05/31 09:58:16;;;;;;;5.53;3.12;;;;;;;23.29;51.32;100599.39;1739377;79;21025;-67
2021/05/31 10:00:53;;;;;;;9.95;3.30;;;;;;;23.36;51.44;100592.86;1738406;79;21067;-65
2021/05/31 10:03:50;;;;;;;10.15;3.58;;;;;;;23.40;51.50;100597.91;1734494;79;21562;-65
2021/05/31 10:06:40;;;;;;;5.83;3.12;;;;;;;23.46;50.29;100590.50;1738007;79;21099;-64
2021/05/31 10:08:45;;;;;;;4.00;3.30;;;;;;;23.54;50.70;100593.90;1731881;81;20930;-69
2021/05/31 10:11:14;;;;;;;6.22;3.50;;;;;;;23.63;50.75;100586.70;1741135;81;21105;-65
2021/05/31 10:13:42;;;;;;;6.58;3.27;;;;;;;23.66;51.01;100583.67;1735878;79;21494;-70
2021/05/31 10:16:09;;;;;;;3.98;2.85;;;;;;;23.73;51.12;100590.30;1737985;79;21554;-70
2021/05/31 10:18:41;;;;;;;6.70;3.30;;;;;;;23.83;50.78;100586.71;1739302;81;21191;-66
2021/05/31 10:21:09;;;;;;;3.87;3.30;;;;;;;23.95;50.01;100588.27;1748833;79;21001;-68
2021/05/31 10:23:35;;;;;;;5.50;3.30;;;;;;;24.01;49.53;100581.36;1739581;81;20939;-68
2021/05/31 10:26:04;;;;;;;6.15;2.95;;;;;;;24.06;49.57;100576.33;1731720;81;21621;-70
2021/05/31 10:28:34;;;;;;;4.15;3.45;;;;;;;24.11;49.03;100580.01;1729773;81;21101;-72
2021/05/31 10:31:06;;;;;;;3.72;2.70;;;;;;;24.08;48.98;100580.30;1643307;84;21162;-71
2021/05/31 10:33:40;;;;;;;5.90;3.25;;;;;;;24.06;48.44;100579.59;1730363;79;21085;-66
2021/05/31 10:36:19;;;;;;;3.52;3.08;;;;;;;23.99;48.76;100578.78;1737373;81;21685;-66
2021/05/31 10:38:56;;;;;;;5.47;3.00;;;;;;;23.93;49.23;100576.60;1739551;79;21707;-64
2021/05/31 10:41:30;;;;;;;5.72;3.55;;;;;;;23.90;48.72;100571.42;1685096;81;21061;-65
2021/05/31 10:43:59;;;;;;;7.85;3.90;;;;;;;23.91;49.25;100569.56;1728747;80;21153;-65
2021/05/31 10:46:33;;;;;;;7.35;3.20;;;;;;;23.85;49.40;100566.90;1741318;80;21137;-65
2021/05/31 10:49:04;;;;;;;6.25;3.40;;;;;;;23.69;49.81;100558.75;1734917;80;23982;-64
2021/05/31 10:51:31;;;;;;;7.42;3.30;;;;;;;23.64;49.82;100559.70;1771738;78;21099;-65
2021/05/31 10:54:16;;;;;;;3.45;3.15;;;;;;;23.62;49.80;100558.98;1786140;78;21145;-71
2021/05/31 10:56:43;;;;;;;7.33;3.65;;;;;;;23.57;49.28;100559.92;1725994;82;21033;-71
2021/05/31 10:59:19;;;;;;;3.92;3.50;;;;;;;23.54;49.55;100560.19;1789238;78;21012;-72
2021/05/31 11:01:47;;;;;;;9.23;4.45;;;;;;;23.53;49.23;100561.20;1791133;78;20924;-72
2021/05/31 11:04:23;;;;;;;5.78;3.90;;;;;;;23.48;50.06;100555.30;1788742;77;21072;-72
2021/05/31 11:06:54;;;;;;;7.22;4.40;;;;;;;23.44;50.35;100558.32;1791182;79;21091;-70
2021/05/31 11:09:30;;;;;;;5.62;3.52;;;;;;;23.41;50.13;100553.14;1783995;79;21417;-68
2021/05/31 11:12:01;;;;;;;3.65;3.33;;;;;;;23.37;50.25;100550.33;1762955;79;21556;-66
2021/05/31 11:14:36;;;;;;;4.03;3.62;;;;;;;23.32;50.03;100548.50;1762620;79;21135;-65
2021/05/31 11:17:11;;;;;;;5.45;3.58;;;;;;;23.29;50.30;100545.57;1759979;80;21147;-71
2021/05/31 11:19:50;;;;;;;3.77;3.47;;;;;;;23.24;50.31;100537.39;1752569;80;21630;-70
2021/05/31 11:22:23;;;;;;;4.20;2.92;;;;;;;23.15;50.65;100540.47;1757595;79;21709;-72
2021/05/31 11:25:03;;;;;;;3.70;3.20;;;;;;;23.11;50.41;100539.91;1687786;82;21147;-71
2021/05/31 11:27:36;;;;;;;5.65;3.10;;;;;;;23.08;49.99;100536.58;1754794;79;21099;-70
2021/05/31 11:30:12;;;;;;;4.22;3.08;;;;;;;22.99;50.13;100530.08;1726052;82;21026;-70
2021/05/31 11:32:45;;;;;;;8.35;3.40;;;;;;;22.87;49.99;100527.45;1738389;81;22423;-71
2021/05/31 11:35:14;;;;;;;9.98;4.30;;;;;;;22.82;50.49;100526.16;1713721;81;20955;-74
2021/05/31 11:37:46;;;;;;;3.85;3.33;;;;;;;22.82;51.05;100518.81;1725568;81;21074;-72
2021/05/31 11:40:35;;;;;;;3.55;3.25;;;;;;;22.80;51.56;100518.09;1724888;80;21082;-69
2021/05/31 11:43:05;;;;;;;5.05;3.27;;;;;;;22.76;51.15;100516.64;1724557;80;21179;-67
2021/05/31 11:45:36;;;;;;;5.42;4.20;;;;;;;22.75;51.46;100514.40;1754875;79;21528;-66